Time;durP1;ratioP1;P1;durP2;ratioP2;P2;SDS_P1;SDS_P2;PMS_P1;PMS_P2;Temp;Humidity;BMP_temperature;BMP_pressure;BME280_temperature;BME280_humidity;BME280_pressure;Samples;Min_cycle;Max_cycle;Signal;HPM_P1;HPM_P2
2021/05/19 00:01:27;;;;;;;1.02;0.50;;;13.60;80.80;;;;;;5085512;28;20074;-76
2021/05/19 00:03:53;;;;;;;0.63;0.38;;;13.60;81.00;;;;;;5096763;28;20028;-75
2021/05/19 00:06:19;;;;;;;0.88;0.50;;;13.70;80.40;;;;;;5095333;28;20479;-76
2021/05/19 00:08:45;;;;;;;0.85;0.50;;;13.60;80.50;;;;;;5093113;28;20032;-75
2021/05/19 00:11:10;;;;;;;0.82;0.50;;;13.70;80.50;;;;;;5077490;28;20036;-75
2021/05/19 00:13:37;;;;;;;1.08;0.50;;;13.70;80.10;;;;;;5077543;28;20096;-75
2021/05/19 00:16:06;;;;;;;1.13;0.52;;;13.70;80.30;;;;;;5078597;28;20753;-75
2021/05/19 00:18:34;;;;;;;0.90;0.50;;;13.70;80.10;;;;;;5097903;28;20016;-75
2021/05/19 00:21:00;;;;;;;1.75;0.75;;;13.70;80.70;;;;;;5096945;28;20028;-76
2021/05/19 00:23:26;;;;;;;0.70;0.45;;;13.60;80.70;;;;;;5077381;28;20533;-76
2021/05/19 00:25:52;;;;;;;0.70;0.40;;;13.60;80.50;;;;;;5076841;28;20028;-76
2021/05/19 00:28:18;;;;;;;0.73;0.50;;;13.50;81.30;;;;;;5077293;28;20578;-75
2021/05/19 00:30:46;;;;;;;0.90;0.50;;;13.50;81.60;;;;;;5077263;28;20009;-75
2021/05/19 00:33:11;;;;;;;0.43;0.38;;;13.40;81.90;;;;;;5077068;28;20025;-75
2021/05/19 00:35:37;;;;;;;0.95;0.40;;;13.40;82.10;;;;;;5077092;28;20042;-76
2021/05/19 00:38:02;;;;;;;0.63;0.52;;;13.30;82.40;;;;;;5095655;28;20036;-75
2021/05/19 00:40:29;;;;;;;2.83;0.85;;;13.30;82.40;;;;;;5092466;28;20031;-76
2021/05/19 00:42:55;;;;;;;0.80;0.55;;;13.30;82.40;;;;;;5087057;28;20024;-76
2021/05/19 00:45:21;;;;;;;0.60;0.38;;;13.30;81.90;;;;;;5095282;28;20032;-75
2021/05/19 00:47:46;;;;;;;0.70;0.47;;;13.30;81.90;;;;;;5076714;28;20029;-75
2021/05/19 00:50:24;;;;;;;0.93;0.47;;;13.30;82.30;;;;;;5076852;28;20100;-75
2021/05/19 00:52:51;;;;;;;1.05;0.50;;;13.30;81.90;;;;;;5076637;28;20033;-75
2021/05/19 00:55:27;;;;;;;0.60;0.40;;;13.20;82.30;;;;;;5076715;28;20017;-75
2021/05/19 00:57:54;;;;;;;0.93;0.60;;;13.20;82.60;;;;;;5076694;28;20029;-75
2021/05/19 01:00:22;;;;;;;0.88;0.50;;;13.20;82.80;;;;;;5076505;28;20028;-75
2021/05/19 01:02:48;;;;;;;1.40;0.63;;;13.10;82.60;;;;;;5076667;28;20044;-75
2021/05/19 01:05:40;;;;;;;1.15;0.60;;;13.10;81.90;;;;;;5076387;28;20387;-75
2021/05/19 01:10:51;;;;;;;0.80;0.60;;;13.20;81.90;;;;;;5076572;28;20110;-75
2021/05/19 01:13:18;;;;;;;0.65;0.40;;;13.20;81.50;;;;;;5092151;28;20025;-75
2021/05/19 01:15:44;;;;;;;0.70;0.50;;;13.20;81.80;;;;;;5076333;28;20024;-76
2021/05/19 01:18:15;;;;;;;1.00;0.77;;;13.10;82.20;;;;;;5076633;28;20028;-75
2021/05/19 01:20:40;;;;;;;1.23;0.50;;;13.10;82.30;;;;;;5075345;28;20031;-75
2021/05/19 01:23:07;;;;;;;0.70;0.50;;;13.00;82.30;;;;;;5076068;28;20120;-75
2021/05/19 01:25:37;;;;;;;0.60;0.50;;;13.00;82.80;;;;;;5088842;28;20031;-75
2021/05/19 01:28:04;;;;;;;1.20;0.52;;;13.00;82.00;;;;;;5096221;28;20494;-75
2021/05/19 01:30:32;;;;;;;1.02;0.57;;;13.00;81.70;;;;;;5095024;28;20608;-76
2021/05/19 01:32:58;;;;;;;0.80;0.52;;;13.10;82.00;;;;;;5085731;28;20017;-75
2021/05/19 01:35:24;;;;;;;0.70;0.50;;;13.00;81.60;;;;;;5075945;28;20036;-75
2021/05/19 01:37:50;;;;;;;0.90;0.60;;;13.10;81.60;;;;;;5092774;28;20021;-75
2021/05/19 01:40:19;;;;;;;1.20;0.57;;;13.00;81.30;;;;;;5095123;28;20035;-75
2021/05/19 01:42:47;;;;;;;1.10;0.50;;;13.00;81.80;;;;;;5094956;28;20054;-75
2021/05/19 01:45:15;;;;;;;1.23;0.70;;;13.00;82.00;;;;;;5096061;28;20036;-75
2021/05/19 01:47:42;;;;;;;1.30;0.63;;;13.10;81.80;;;;;;5094607;28;20024;-76
2021/05/19 01:50:22;;;;;;;1.20;0.75;;;13.20;80.90;;;;;;5078938;28;20024;-75
2021/05/19 01:52:49;;;;;;;;;;;13.20;81.40;;;;;;5076119;28;20090;-75
2021/05/19 01:55:17;;;;;;;0.85;0.40;;;13.20;81.40;;;;;;5075337;28;19908;-75
2021/05/19 01:57:44;;;;;;;0.55;0.40;;;13.30;82.20;;;;;;5090673;28;20032;-75
2021/05/19 02:00:11;;;;;;;1.13;0.50;;;13.20;81.40;;;;;;5075674;28;20021;-75
2021/05/19 02:02:37;;;;;;;0.60;0.50;;;13.20;81.60;;;;;;5075281;28;20020;-75
2021/05/19 02:05:04;;;;;;;0.73;0.50;;;13.30;82.30;;;;;;5075587;28;20039;-76
2021/05/19 02:07:29;;;;;;;0.60;0.40;;;13.20;82.20;;;;;;5075164;28;20033;-75
2021/05/19 02:09:56;;;;;;;1.30;0.75;;;13.30;82.40;;;;;;5075258;28;20020;-75
2021/05/19 02:12:21;;;;;;;1.10;0.50;;;13.30;82.40;;;;;;5075338;28;20024;-75
2021/05/19 02:14:47;;;;;;;0.88;0.52;;;13.30;82.40;;;;;;5075229;28;20031;-75
2021/05/19 02:17:13;;;;;;;0.63;0.52;;;13.30;82.60;;;;;;5075345;28;20055;-75
2021/05/19 02:19:39;;;;;;;1.55;0.60;;;13.40;82.00;;;;;;5075420;28;20046;-75
2021/05/19 02:22:05;;;;;;;0.90;0.40;;;13.30;82.30;;;;;;5075904;28;20070;-75
2021/05/19 02:24:31;;;;;;;1.50;0.63;;;13.40;82.00;;;;;;5095469;28;20036;-75
2021/05/19 02:26:57;;;;;;;0.88;0.60;;;13.40;81.90;;;;;;5095275;28;20413;-76
2021/05/19 02:29:23;;;;;;;1.00;0.60;;;13.40;82.60;;;;;;5079123;28;20035;-75
2021/05/19 02:31:48;;;;;;;0.70;0.45;;;13.30;83.60;;;;;;5075001;28;20150;-76
2021/05/19 02:34:14;;;;;;;0.60;0.45;;;13.30;83.80;;;;;;5075190;28;20737;-75
2021/05/19 02:36:40;;;;;;;2.20;0.52;;;13.20;83.70;;;;;;5081870;28;20036;-75
2021/05/19 02:39:12;;;;;;;1.02;0.68;;;13.30;83.60;;;;;;5090007;28;20024;-75
2021/05/19 02:41:40;;;;;;;1.00;0.40;;;13.30;83.40;;;;;;5075056;28;20017;-75
2021/05/19 02:44:07;;;;;;;1.02;0.52;;;13.40;83.00;;;;;;5075125;28;20047;-76
2021/05/19 02:46:33;;;;;;;1.00;0.50;;;13.40;82.50;;;;;;5074998;28;20098;-75
2021/05/19 02:49:02;;;;;;;1.33;0.70;;;13.50;82.30;;;;;;5093440;28;20052;-75
2021/05/19 02:51:37;;;;;;;0.85;0.52;;;13.50;82.50;;;;;;5095265;28;20027;-75
2021/05/19 02:54:04;;;;;;;2.28;0.55;;;13.40;82.20;;;;;;5095218;28;20725;-76
2021/05/19 02:56:30;;;;;;;0.60;0.40;;;13.40;83.30;;;;;;5093480;28;20603;-75
2021/05/19 02:58:56;;;;;;;0.60;0.47;;;13.30;83.10;;;;;;5090390;28;20113;-75
2021/05/19 03:01:22;;;;;;;1.25;0.60;;;13.30;83.20;;;;;;5090433;28;20078;-75
2021/05/19 03:03:47;;;;;;;0.70;0.50;;;13.20;83.60;;;;;;5073605;28;20033;-75
2021/05/19 03:06:13;;;;;;;1.73;0.90;;;13.30;83.20;;;;;;5089441;28;20084;-75
2021/05/19 03:08:39;;;;;;;1.60;0.60;;;13.30;82.50;;;;;;5095650;28;20490;-75
2021/05/19 03:11:06;;;;;;;1.95;0.60;;;13.30;83.30;;;;;;5082838;28;20016;-76
2021/05/19 03:13:32;;;;;;;0.63;0.50;;;13.40;83.30;;;;;;5078555;28;20017;-75
2021/05/19 03:15:58;;;;;;;1.75;0.70;;;13.40;82.90;;;;;;5077453;28;20048;-75
2021/05/19 03:18:23;;;;;;;1.23;0.55;;;13.40;82.70;;;;;;5078586;28;20033;-75
2021/05/19 03:20:49;;;;;;;1.63;0.90;;;13.40;83.20;;;;;;5078299;28;20024;-75
2021/05/19 03:23:17;;;;;;;1.33;0.60;;;13.50;82.90;;;;;;5078285;28;20340;-75
2021/05/19 03:25:44;;;;;;;0.93;0.52;;;13.50;83.00;;;;;;5078317;28;20406;-76
2021/05/19 03:28:09;;;;;;;0.90;0.50;;;13.50;82.40;;;;;;5077007;28;20093;-76
2021/05/19 03:30:35;;;;;;;0.73;0.50;;;13.50;83.10;;;;;;5078365;28;20054;-76
2021/05/19 03:33:01;;;;;;;0.60;0.40;;;13.50;82.70;;;;;;5078620;28;20029;-75
2021/05/19 03:35:27;;;;;;;1.73;0.40;;;13.50;83.10;;;;;;5076932;28;20028;-75
2021/05/19 03:37:53;;;;;;;1.13;0.60;;;13.50;82.30;;;;;;5093575;28;20042;-75
2021/05/19 03:40:21;;;;;;;0.65;0.50;;;13.50;82.50;;;;;;5078433;28;20035;-76
2021/05/19 03:42:47;;;;;;;1.73;0.50;;;13.40;82.70;;;;;;5078044;28;20112;-75
2021/05/19 03:45:16;;;;;;;0.70;0.50;;;13.40;82.80;;;;;;5077995;28;20052;-75
2021/05/19 03:47:42;;;;;;;0.60;0.50;;;13.40;83.20;;;;;;5078069;28;20042;-75
2021/05/19 03:50:10;;;;;;;1.25;0.40;;;13.40;82.50;;;;;;5077907;28;20048;-75
2021/05/19 03:52:35;;;;;;;0.70;0.45;;;13.30;82.50;;;;;;5077940;28;20020;-75
2021/05/19 03:55:02;;;;;;;0.50;0.40;;;13.30;82.80;;;;;;5077791;28;20169;-75
2021/05/19 03:57:28;;;;;;;0.70;0.50;;;13.30;82.30;;;;;;5077817;28;20036;-75
2021/05/19 03:59:54;;;;;;;0.98;0.50;;;13.40;82.20;;;;;;5077968;28;20037;-75
2021/05/19 04:02:20;;;;;;;0.80;0.50;;;13.40;82.30;;;;;;5094787;28;20028;-75
2021/05/19 04:04:45;;;;;;;0.68;0.47;;;13.40;82.40;;;;;;5098095;28;20036;-76
2021/05/19 04:07:11;;;;;;;0.57;0.40;;;13.40;81.90;;;;;;5097985;28;20077;-75
2021/05/19 04:09:37;;;;;;;0.63;0.40;;;13.30;81.80;;;;;;5094589;28;20471;-76
2021/05/19 04:12:03;;;;;;;0.75;0.40;;;13.30;81.60;;;;;;5077661;28;20376;-75
2021/05/19 04:14:32;;;;;;;0.88;0.47;;;13.30;81.70;;;;;;5077743;28;20019;-75
2021/05/19 04:16:58;;;;;;;0.45;0.35;;;13.20;81.30;;;;;;5077307;28;20028;-76
2021/05/19 04:19:23;;;;;;;0.70;0.40;;;13.20;81.20;;;;;;5077307;28;20401;-75
2021/05/19 04:21:49;;;;;;;0.57;0.45;;;13.20;81.90;;;;;;5077349;28;20029;-75
2021/05/19 04:24:15;;;;;;;0.90;0.50;;;13.10;81.20;;;;;;5077446;28;20084;-75
2021/05/19 04:26:41;;;;;;;1.08;0.50;;;13.00;81.60;;;;;;5075680;28;20052;-75
2021/05/19 04:29:06;;;;;;;1.65;0.77;;;12.90;81.30;;;;;;5077449;28;20023;-75
2021/05/19 04:31:32;;;;;;;0.88;0.55;;;12.90;81.50;;;;;;5077170;28;20799;-75
2021/05/19 04:33:58;;;;;;;0.47;0.40;;;12.80;81.50;;;;;;5077446;28;20491;-76
2021/05/19 04:36:24;;;;;;;0.57;0.40;;;12.80;81.70;;;;;;5081838;28;20031;-75
2021/05/19 04:38:50;;;;;;;1.00;0.50;;;12.80;81.50;;;;;;5096272;28;20571;-75
2021/05/19 04:41:16;;;;;;;1.35;0.60;;;12.80;81.30;;;;;;5097235;28;20049;-75
2021/05/19 04:43:43;;;;;;;0.77;0.50;;;12.70;81.20;;;;;;5091771;28;20033;-75
2021/05/19 04:46:09;;;;;;;1.25;0.40;;;12.70;81.10;;;;;;5077070;28;20491;-75
2021/05/19 04:48:34;;;;;;;0.80;0.50;;;12.60;81.50;;;;;;5076888;28;20024;-76
2021/05/19 04:51:00;;;;;;;0.50;0.40;;;12.70;81.10;;;;;;5075576;28;20025;-76
2021/05/19 04:53:26;;;;;;;1.38;0.50;;;12.60;81.40;;;;;;5091759;28;20052;-76
2021/05/19 04:55:53;;;;;;;0.60;0.50;;;12.60;81.20;;;;;;5075374;28;20036;-78
2021/05/19 04:58:19;;;;;;;0.70;0.57;;;12.50;81.30;;;;;;5075194;28;20027;-77
2021/05/19 05:00:45;;;;;;;1.02;0.50;;;12.50;81.10;;;;;;5076713;28;20482;-77
2021/05/19 05:03:11;;;;;;;0.70;0.50;;;12.50;80.80;;;;;;5076422;28;20028;-76
2021/05/19 05:05:37;;;;;;;1.67;0.57;;;12.50;80.90;;;;;;5076596;28;20546;-77
2021/05/19 05:08:03;;;;;;;1.02;0.43;;;12.50;80.70;;;;;;5074887;28;20083;-78
2021/05/19 05:10:29;;;;;;;1.35;0.43;;;12.50;81.00;;;;;;5075304;28;20059;-78
2021/05/19 05:12:55;;;;;;;0.65;0.45;;;12.50;81.20;;;;;;5076073;28;20021;-78
2021/05/19 05:15:21;;;;;;;0.90;0.50;;;12.50;81.10;;;;;;5076231;28;20037;-77
2021/05/19 05:17:48;;;;;;;0.60;0.50;;;12.50;81.20;;;;;;5074794;28;20024;-80
2021/05/19 05:20:14;;;;;;;0.70;0.50;;;12.50;81.00;;;;;;5075979;28;20033;-79
2021/05/19 05:22:40;;;;;;;1.98;0.50;;;12.50;80.70;;;;;;5072357;28;20029;-79
2021/05/19 05:25:07;;;;;;;0.82;0.50;;;12.70;80.40;;;;;;5087104;28;20085;-79
2021/05/19 05:27:33;;;;;;;0.73;0.50;;;12.70;80.10;;;;;;5087203;28;20076;-78
2021/05/19 05:29:59;;;;;;;1.30;0.50;;;12.70;80.30;;;;;;5079611;28;20024;-79
2021/05/19 05:32:24;;;;;;;0.40;0.40;;;12.60;80.00;;;;;;5089774;28;20028;-79
2021/05/19 05:34:50;;;;;;;0.70;0.50;;;12.60;80.50;;;;;;5072554;28;20099;-79
2021/05/19 05:37:17;;;;;;;0.60;0.50;;;12.50;80.70;;;;;;5092564;28;20030;-78
2021/05/19 05:39:42;;;;;;;0.70;0.50;;;12.60;80.70;;;;;;5087604;28;20501;-79
2021/05/19 05:42:08;;;;;;;0.70;0.52;;;12.60;80.60;;;;;;5096000;28;20024;-79
2021/05/19 05:44:34;;;;;;;0.52;0.50;;;12.60;80.60;;;;;;5085601;28;20073;-79
2021/05/19 05:47:00;;;;;;;0.75;0.50;;;12.70;80.60;;;;;;5074406;28;20052;-79
2021/05/19 05:49:26;;;;;;;1.05;0.60;;;12.80;80.30;;;;;;5079437;28;20024;-78
2021/05/19 05:51:51;;;;;;;0.50;0.40;;;12.90;79.60;;;;;;5082164;28;20023;-79
2021/05/19 05:54:17;;;;;;;0.82;0.50;;;12.90;79.20;;;;;;5095167;28;20020;-79
2021/05/19 05:56:43;;;;;;;0.82;0.40;;;12.90;80.10;;;;;;5076242;28;20484;-80
2021/05/19 05:59:09;;;;;;;1.13;0.60;;;13.00;79.70;;;;;;5075167;28;20128;-79
2021/05/19 06:01:35;;;;;;;0.43;0.32;;;13.10;78.90;;;;;;5075176;28;20044;-77
2021/05/19 06:04:01;;;;;;;0.50;0.40;;;13.10;79.10;;;;;;5056158;28;20040;-78
2021/05/19 06:06:27;;;;;;;1.35;0.50;;;13.10;79.20;;;;;;5083926;28;20043;-77
2021/05/19 06:08:53;;;;;;;0.65;0.43;;;13.00;79.30;;;;;;5093851;28;20060;-77
2021/05/19 06:11:19;;;;;;;0.73;0.55;;;13.00;80.00;;;;;;5088561;28;20051;-76
2021/05/19 06:13:45;;;;;;;0.60;0.50;;;12.90;79.40;;;;;;5089901;28;20032;-77
2021/05/19 06:16:11;;;;;;;0.45;0.40;;;12.90;79.40;;;;;;5088441;28;20032;-77
2021/05/19 06:18:36;;;;;;;0.90;0.45;;;12.90;79.70;;;;;;5091934;28;20035;-77
2021/05/19 06:21:02;;;;;;;0.80;0.52;;;12.90;79.70;;;;;;5085075;28;20039;-77
2021/05/19 06:23:28;;;;;;;0.65;0.40;;;12.90;79.80;;;;;;5070630;28;20016;-77
2021/05/19 06:25:53;;;;;;;0.82;0.45;;;12.90;79.60;;;;;;5073475;28;20119;-78
2021/05/19 06:28:19;;;;;;;0.80;0.47;;;12.90;80.70;;;;;;5086674;28;20070;-78
2021/05/19 06:30:45;;;;;;;0.80;0.38;;;12.90;79.60;;;;;;5090514;28;20024;-78
2021/05/19 06:33:12;;;;;;;0.63;0.40;;;12.90;79.80;;;;;;5090709;28;20024;-78
2021/05/19 06:35:37;;;;;;;0.85;0.40;;;13.00;79.10;;;;;;5084266;28;20050;-79
2021/05/19 06:38:03;;;;;;;0.40;0.40;;;13.00;79.80;;;;;;5084303;28;20451;-79
2021/05/19 06:40:32;;;;;;;0.82;0.52;;;13.00;79.40;;;;;;5098503;28;20040;-78
2021/05/19 06:42:58;;;;;;;0.85;0.50;;;13.00;79.00;;;;;;5090238;28;20410;-79
2021/05/19 06:45:24;;;;;;;0.50;0.45;;;13.00;79.00;;;;;;5091613;28;20024;-78
2021/05/19 06:47:51;;;;;;;0.75;0.47;;;13.10;79.40;;;;;;5093580;28;20020;-77
2021/05/19 06:50:17;;;;;;;0.70;0.40;;;13.10;78.70;;;;;;5100550;28;20051;-79
2021/05/19 06:52:43;;;;;;;0.57;0.40;;;13.10;78.30;;;;;;5092917;28;20506;-78
2021/05/19 06:55:11;;;;;;;0.73;0.50;;;13.10;78.90;;;;;;5097685;28;20020;-79
2021/05/19 06:57:37;;;;;;;0.80;0.40;;;13.20;78.90;;;;;;5093614;28;20028;-79
2021/05/19 07:00:08;;;;;;;0.88;0.40;;;13.30;79.00;;;;;;5094743;28;20081;-78
2021/05/19 07:02:34;;;;;;;0.52;0.40;;;13.50;78.00;;;;;;5091833;28;20399;-79
2021/05/19 07:05:00;;;;;;;0.95;0.40;;;13.60;77.70;;;;;;5097998;28;20028;-80
2021/05/19 07:07:26;;;;;;;1.02;0.47;;;14.00;77.50;;;;;;5091038;28;20510;-79
2021/05/19 07:09:51;;;;;;;0.55;0.40;;;14.10;76.50;;;;;;5085169;28;20063;-78
2021/05/19 07:12:17;;;;;;;0.70;0.60;;;14.40;75.20;;;;;;5083204;28;20459;-78
2021/05/19 07:14:50;;;;;;;0.55;0.45;;;;;;;;;;5091686;28;20455;-78
2021/05/19 07:17:16;;;;;;;0.40;0.10;;;15.00;73.60;;;;;;5090622;28;20434;-78
2021/05/19 07:19:42;;;;;;;1.02;0.32;;;19.20;59.50;;;;;;5090640;28;20187;-78
2021/05/19 07:22:08;;;;;;;0.10;0.10;;;;;;;;;;5091365;28;20570;-78
2021/05/19 07:24:34;;;;;;;0.80;0.22;;;;;;;;;;5090075;28;20017;-79
2021/05/19 07:27:00;;;;;;;0.75;0.32;;;;;;;;;;5090393;28;20047;-78
2021/05/19 07:29:26;;;;;;;0.68;0.35;;;;;;;;;;5092907;28;20108;-78
2021/05/19 07:31:53;;;;;;;0.60;0.28;;;;;;;;;;5083799;28;20067;-79
2021/05/19 07:34:19;;;;;;;0.50;0.20;;;;;;;;;;5090348;28;20089;-79
2021/05/19 07:36:45;;;;;;;0.40;0.10;;;;;;;;;;5085872;28;20475;-78
2021/05/19 07:39:13;;;;;;;0.65;0.30;;;;;;;;;;5090692;28;20048;-79
2021/05/19 07:41:39;;;;;;;0.77;0.40;;;;;;;;;;5092482;28;20028;-78
2021/05/19 07:44:05;;;;;;;1.40;0.20;;;;;;;;;;5090084;28;20028;-80
2021/05/19 07:46:32;;;;;;;0.35;0.20;;;18.50;60.20;;;;;;5092892;28;20107;-79
2021/05/19 07:48:57;;;;;;;1.05;0.30;;;21.90;49.60;;;;;;5089850;28;20035;-79
2021/05/19 07:51:23;;;;;;;0.85;0.20;;;21.20;51.10;;;;;;5088345;28;20032;-80
2021/05/19 07:53:48;;;;;;;0.32;0.20;;;20.40;53.10;;;;;;5094844;28;20020;-80
2021/05/19 07:58:44;;;;;;;0.40;0.20;;;19.60;56.10;;;;;;5089704;28;20028;-80
2021/05/19 08:03:39;;;;;;;0.45;0.20;;;;;;;;;;5090332;28;19912;-79
2021/05/19 08:06:05;;;;;;;0.35;0.15;;;20.30;54.10;;;;;;5090487;28;20031;-80
2021/05/19 08:08:31;;;;;;;0.38;0.15;;;20.30;53.20;;;;;;5091742;28;20070;-79
2021/05/19 08:10:58;;;;;;;0.40;0.40;;;19.60;54.60;;;;;;5088896;28;20067;-79
2021/05/19 08:13:24;;;;;;;0.40;0.20;;;;;;;;;;5092331;28;20020;-79
2021/05/19 08:15:49;;;;;;;0.60;0.10;;;20.00;56.80;;;;;;5091247;28;20501;-79
2021/05/19 08:18:17;;;;;;;0.80;0.50;;;;;;;;;;5088567;28;20388;-79
2021/05/19 08:20:43;;;;;;;0.50;0.30;;;;;;;;;;5090097;28;20030;-80
2021/05/19 08:23:09;;;;;;;0.80;0.30;;;;;;;;;;5088716;28;20081;-80
2021/05/19 08:25:36;;;;;;;0.22;0.10;;;;;;;;;;5089036;28;20410;-80
2021/05/19 08:28:02;;;;;;;0.47;0.17;;;;;;;;;;5093068;28;20044;-80
2021/05/19 08:30:28;;;;;;;0.60;0.20;;;;;;;;;;5085208;28;20569;-79
2021/05/19 08:32:54;;;;;;;0.50;0.15;;;20.90;50.60;;;;;;5089092;28;20417;-79
2021/05/19 08:35:20;;;;;;;0.60;0.40;;;;;;;;;;5091889;28;20102;-79
2021/05/19 08:37:46;;;;;;;0.50;0.30;;;;;;;;;;5085227;28;20107;-80
2021/05/19 08:40:12;;;;;;;0.50;0.13;;;;;;;;;;5083862;28;20793;-80
2021/05/19 08:42:38;;;;;;;0.40;0.10;;;;;;;;;;5090497;28;20173;-79
2021/05/19 08:45:06;;;;;;;0.35;0.10;;;22.10;47.80;;;;;;5086381;28;20050;-79
2021/05/19 08:47:32;;;;;;;0.30;0.20;;;22.10;46.60;;;;;;5084376;28;20505;-80
2021/05/19 08:49:58;;;;;;;0.50;0.38;;;;;;;;;;5089490;28;20024;-80
2021/05/19 08:52:24;;;;;;;0.60;0.30;;;;;;;;;;5086112;28;20024;-80
2021/05/19 08:54:53;;;;;;;0.50;0.30;;;;;;;;;;5087283;28;20020;-80
2021/05/19 08:57:19;;;;;;;0.93;0.28;;;;;;;;;;5091000;28;20537;-80
2021/05/19 08:59:45;;;;;;;0.32;0.20;;;;;;;;;;5088578;28;20113;-80
2021/05/19 09:02:12;;;;;;;0.50;0.20;;;;;;;;;;5091297;28;20066;-80
2021/05/19 09:04:38;;;;;;;0.50;0.10;;;;;;;;;;5094333;28;20020;-80
2021/05/19 09:07:05;;;;;;;0.50;0.20;;;;;;;;;;5088250;28;20028;-80
2021/05/19 09:09:36;;;;;;;0.40;0.10;;;21.40;48.90;;;;;;5091866;28;20024;-81
2021/05/19 09:12:07;;;;;;;0.30;0.10;;;22.50;45.90;;;;;;5085900;28;20020;-80
2021/05/19 09:14:37;;;;;;;0.38;0.20;;;21.70;47.10;;;;;;5089020;28;20020;-79
2021/05/19 09:17:22;;;;;;;0.47;0.20;;;21.70;48.90;;;;;;5088396;28;20047;-80
2021/05/19 09:19:48;;;;;;;0.40;0.20;;;21.70;48.30;;;;;;5087448;28;20208;-79
2021/05/19 09:22:18;;;;;;;0.60;0.40;;;;;;;;;;5076427;28;20177;-80
2021/05/19 09:24:44;;;;;;;0.63;0.30;;;;;;;;;;5057783;28;20134;-80
2021/05/19 09:27:10;;;;;;;0.80;0.30;;;;;;;;;;5062576;28;20048;-80
2021/05/19 09:29:37;;;;;;;0.40;0.13;;;21.60;47.80;;;;;;5064599;28;20081;-80
2021/05/19 09:32:03;;;;;;;0.43;0.10;;;;;;;;;;5086918;28;20028;-80
2021/05/19 09:34:39;;;;;;;0.22;0.10;;;;;;;;;;5088018;28;20028;-80
2021/05/19 09:37:12;;;;;;;0.57;0.20;;;;;;;;;;5084628;28;20161;-80
2021/05/19 09:39:47;;;;;;;0.38;0.30;;;;;;;;;;5091816;28;20043;-80
2021/05/19 09:42:13;;;;;;;0.38;0.17;;;;;;;;;;5087087;28;20506;-80
2021/05/19 09:44:40;;;;;;;0.50;0.20;;;;;;;;;;5087918;28;20070;-80
2021/05/19 09:47:06;;;;;;;0.45;0.15;;;;;;;;;;5088182;28;20036;-80
2021/05/19 09:49:32;;;;;;;0.40;0.20;;;;;;;;;;5090526;28;20069;-79
2021/05/19 09:52:08;;;;;;;0.40;0.30;;;;;;;;;;5088761;28;20027;-80
2021/05/19 09:54:35;;;;;;;0.57;0.30;;;;;;;;;;5087864;28;20028;-80
2021/05/19 09:57:05;;;;;;;0.28;0.10;;;;;;;;;;5090695;28;20066;-80
2021/05/19 09:59:31;;;;;;;0.30;0.10;;;;;;;;;;5085059;28;20035;-80
2021/05/19 10:01:59;;;;;;;0.17;0.10;;;;;;;;;;5082593;28;20067;-79
2021/05/19 10:04:29;;;;;;;0.20;0.10;;;;;;;;;;5087590;28;20023;-80
2021/05/19 10:06:56;;;;;;;0.40;0.20;;;;;;;;;;5090270;28;20042;-80
2021/05/19 10:09:24;;;;;;;0.40;0.25;;;;;;;;;;5090097;28;20024;-86
2021/05/19 10:11:50;;;;;;;0.40;0.10;;;;;;;;;;5088112;28;20031;-85
2021/05/19 10:14:17;;;;;;;0.10;0.03;;;;;;;;;;5088216;28;20028;-85
2021/05/19 10:16:45;;;;;;;0.30;0.10;;;26.70;41.40;;;;;;5086329;28;20028;-85
2021/05/19 10:19:28;;;;;;;0.20;0.10;;;23.70;41.00;;;;;;5085032;28;20024;-87
2021/05/19 10:21:57;;;;;;;0.50;0.10;;;23.00;43.40;;;;;;5089170;28;20406;-84
2021/05/19 10:24:43;;;;;;;0.60;0.30;;;;;;;;;;5090014;28;20418;-87
2021/05/19 10:27:10;;;;;;;0.30;0.20;;;;;;;;;;5088008;28;20054;-88
2021/05/19 10:29:48;;;;;;;0.17;0.00;;;;;;;;;;5082754;28;20040;-88
2021/05/19 10:32:20;;;;;;;0.10;0.05;;;;;;;;;;5094223;28;20012;-86
2021/05/19 10:34:50;;;;;;;0.20;0.10;;;;;;;;;;5089432;28;20047;-81
2021/05/19 10:37:28;;;;;;;0.43;0.10;;;;;;;;;;5092271;28;20023;-85
2021/05/19 10:40:18;;;;;;;0.38;0.17;;;22.50;44.00;;;;;;5089303;28;20043;-84
2021/05/19 10:42:55;;;;;;;0.20;0.10;;;22.80;42.70;;;;;;5088714;28;20086;-84
2021/05/19 10:45:22;;;;;;;0.13;0.10;;;22.00;45.70;;;;;;5087095;28;20524;-82
2021/05/19 10:47:48;;;;;;;0.43;0.20;;;21.60;48.20;;;;;;5090488;28;20143;-85
2021/05/19 10:50:28;;;;;;;1.85;0.20;;;21.40;49.50;;;;;;5084873;28;22387;-89
2021/05/19 10:58:53;;;;;;;0.28;0.10;;;21.20;50.30;;;;;;5088623;28;20836;-85
2021/05/19 11:01:41;;;;;;;0.45;0.10;;;21.40;48.40;;;;;;5087111;28;20039;-85
2021/05/19 11:04:22;;;;;;;0.28;0.20;;;21.40;48.00;;;;;;5088085;28;20111;-89
2021/05/19 11:06:57;;;;;;;0.57;0.20;;;21.20;47.30;;;;;;5094064;28;20644;-88
2021/05/19 11:09:25;;;;;;;0.50;0.20;;;21.00;48.90;;;;;;5088283;28;20021;-90
2021/05/19 11:11:51;;;;;;;0.50;0.20;;;20.90;47.20;;;;;;5091396;28;20161;-84
2021/05/19 11:14:37;;;;;;;0.38;0.20;;;20.90;47.40;;;;;;5084020;28;20020;-77
2021/05/19 11:19:48;;;;;;;0.32;0.20;;;20.80;46.70;;;;;;5473422;22;20065;-78
2021/05/19 11:22:15;;;;;;;0.30;0.20;;;20.70;46.80;;;;;;5041973;28;20026;-78
2021/05/19 11:24:54;;;;;;;0.22;0.10;;;20.70;45.90;;;;;;5037266;28;20029;-78
2021/05/19 11:27:26;;;;;;;0.30;0.20;;;20.80;46.80;;;;;;5049456;28;20645;-78
2021/05/19 11:29:52;;;;;;;0.32;0.20;;;21.20;45.30;;;;;;5050914;28;20115;-77
2021/05/19 11:32:20;;;;;;;0.40;0.20;;;21.60;46.40;;;;;;5052561;28;20017;-77
2021/05/19 11:34:46;;;;;;;0.32;0.20;;;21.80;44.00;;;;;;5035775;28;20017;-78
2021/05/19 11:37:13;;;;;;;0.28;0.10;;;22.00;44.20;;;;;;5045978;28;20116;-75
2021/05/19 11:39:44;;;;;;;0.50;0.20;;;22.10;44.20;;;;;;5031120;28;20037;-87
2021/05/19 11:42:15;;;;;;;0.38;0.10;;;22.20;44.40;;;;;;5050388;28;20021;-86
2021/05/19 11:44:42;;;;;;;0.50;0.10;;;22.00;41.80;;;;;;5052065;28;20057;-85
2021/05/19 11:47:09;;;;;;;0.10;0.10;;;21.90;43.70;;;;;;5041849;28;20172;-85
2021/05/19 11:49:36;;;;;;;0.40;0.10;;;21.90;42.70;;;;;;5053008;28;20028;-86
2021/05/19 11:52:01;;;;;;;0.30;0.10;;;21.90;43.70;;;;;;5052467;28;20032;-86
2021/05/19 11:54:27;;;;;;;0.38;0.20;;;21.70;42.20;;;;;;5056149;28;20070;-85
2021/05/19 11:56:57;;;;;;;0.10;0.10;;;21.70;43.90;;;;;;5038586;28;20017;-85
2021/05/19 11:59:26;;;;;;;;;;;21.70;44.00;;;;;;5055769;28;20037;-85
2021/05/19 12:02:06;;;;;;;0.77;0.20;;;21.70;44.50;;;;;;5050691;28;19909;-87
2021/05/19 12:04:34;;;;;;;0.75;0.15;;;21.60;43.40;;;;;;5051110;28;20029;-86
2021/05/19 12:07:06;;;;;;;0.43;0.20;;;21.40;42.70;;;;;;5053826;28;20040;-87
2021/05/19 12:09:40;;;;;;;0.47;0.20;;;21.20;43.70;;;;;;5051587;28;20839;-87
2021/05/19 12:12:12;;;;;;;0.10;0.10;;;20.90;43.10;;;;;;5056219;28;20386;-88
2021/05/19 12:14:39;;;;;;;0.35;0.10;;;20.80;43.80;;;;;;5054012;28;20023;-87
2021/05/19 12:17:06;;;;;;;0.25;0.20;;;20.80;44.40;;;;;;5056833;28;20087;-88
2021/05/19 12:19:36;;;;;;;0.50;0.20;;;20.80;44.20;;;;;;5048675;28;20049;-87
2021/05/19 12:22:13;;;;;;;0.20;0.13;;;20.90;44.90;;;;;;5034910;28;20064;-88
2021/05/19 12:24:39;;;;;;;0.32;0.17;;;21.00;42.80;;;;;;5027512;28;20030;-85
2021/05/19 12:27:06;;;;;;;0.17;0.10;;;21.20;43.20;;;;;;5033012;28;20498;-86
2021/05/19 12:29:36;;;;;;;0.40;0.20;;;21.40;43.70;;;;;;5035215;28;20445;-87
2021/05/19 12:32:16;;;;;;;0.20;0.10;;;21.60;43.80;;;;;;5035804;28;20027;-86
2021/05/19 12:34:42;;;;;;;0.30;0.20;;;21.50;44.30;;;;;;5029989;28;20033;-87
2021/05/19 12:37:09;;;;;;;0.32;0.20;;;21.40;45.20;;;;;;5023160;28;20041;-86
2021/05/19 12:39:36;;;;;;;0.30;0.20;;;21.10;44.80;;;;;;5030733;28;20383;-86
2021/05/19 12:42:21;;;;;;;0.38;0.20;;;21.10;45.50;;;;;;5035144;28;20073;-87
2021/05/19 12:44:58;;;;;;;0.25;0.10;;;21.30;47.00;;;;;;5033897;28;20029;-87
2021/05/19 12:47:25;;;;;;;0.57;0.20;;;21.20;44.10;;;;;;5016101;28;20045;-86
2021/05/19 12:50:02;;;;;;;0.55;0.10;;;21.30;45.00;;;;;;4989928;28;20013;-87
2021/05/19 12:52:36;;;;;;;0.20;0.10;;;21.10;43.30;;;;;;5026296;28;20040;-87
2021/05/19 12:55:04;;;;;;;0.20;0.10;;;21.10;44.30;;;;;;5030486;28;20018;-86
2021/05/19 12:57:34;;;;;;;0.45;0.30;;;21.30;46.40;;;;;;5031780;28;20040;-87
2021/05/19 13:00:15;;;;;;;0.30;0.20;;;21.60;45.10;;;;;;5033357;28;20061;-86
2021/05/19 13:02:43;;;;;;;0.40;0.20;;;21.70;44.20;;;;;;5035994;28;20133;-87
2021/05/19 13:05:20;;;;;;;0.52;0.20;;;21.40;43.30;;;;;;5032389;28;20025;-86
2021/05/19 13:07:51;;;;;;;0.20;0.10;;;21.30;43.50;;;;;;5034683;28;20030;-86
2021/05/19 13:10:23;;;;;;;0.20;0.10;;;21.40;45.30;;;;;;5036015;28;20029;-87
2021/05/19 13:13:03;;;;;;;0.32;0.20;;;21.40;45.10;;;;;;5030384;28;20033;-87
2021/05/19 13:15:46;;;;;;;0.10;0.10;;;21.20;44.10;;;;;;5033127;28;20037;-88
2021/05/19 13:18:31;;;;;;;0.32;0.10;;;21.00;44.10;;;;;;5035196;28;20021;-87
2021/05/19 13:21:12;;;;;;;0.47;0.28;;;20.90;45.40;;;;;;5036276;28;20049;-87
2021/05/19 13:23:41;;;;;;;0.45;0.20;;;21.10;45.20;;;;;;5050886;28;20035;-88
2021/05/19 13:26:08;;;;;;;0.13;0.10;;;21.10;44.70;;;;;;5052464;28;20050;-86